sensor_id;sensor_type;location;lat;lon;timestamp;pressure;altitude;pressure_sealevel;temperature;humidity
51081;BME280;37130;55.670;37.596;2022-08-19T00:02:15;100047.66;;;21.73;45.45
51081;BME280;37130;55.670;37.596;2022-08-19T00:04:42;100114.56;;;22.09;45.80
51081;BME280;37130;55.670;37.596;2022-08-19T00:07:10;100111.97;;;21.98;45.68
51081;BME280;37130;55.670;37.596;2022-08-19T00:09:37;100119.63;;;22.03;46.14
51081;BME280;37130;55.670;37.596;2022-08-19T00:12:05;100108.66;;;21.95;46.08
51081;BME280;37130;55.670;37.596;2022-08-19T00:14:32;100123.59;;;21.99;46.24
51081;BME280;37130;55.670;37.596;2022-08-19T00:17:00;100118.03;;;21.91;46.45
51081;BME280;37130;55.670;37.596;2022-08-19T00:19:28;100133.09;;;21.93;46.70
51081;BME280;37130;55.670;37.596;2022-08-19T00:21:56;100113.69;;;21.78;46.38
51081;BME280;37130;55.670;37.596;2022-08-19T00:24:24;100110.41;;;21.75;46.82
51081;BME280;37130;55.670;37.596;2022-08-19T00:26:52;100107.38;;;21.68;46.75
51081;BME280;37130;55.670;37.596;2022-08-19T00:29:21;100127.16;;;21.78;46.88
51081;BME280;37130;55.670;37.596;2022-08-19T00:31:49;100134.25;;;21.79;47.17
51081;BME280;37130;55.670;37.596;2022-08-19T00:34:17;99978.97;;;20.83;47.04
51081;BME280;37130;55.670;37.596;2022-08-19T00:36:45;100131.97;;;21.75;47.03
51081;BME280;37130;55.670;37.596;2022-08-19T00:39:13;100104.75;;;21.57;47.30
51081;BME280;37130;55.670;37.596;2022-08-19T00:41:43;100136.63;;;21.73;47.46
51081;BME280;37130;55.670;37.596;2022-08-19T00:44:22;100024.78;;;21.04;47.19
51081;BME280;37130;55.670;37.596;2022-08-19T00:46:55;100139.44;;;21.71;47.25
51081;BME280;37130;55.670;37.596;2022-08-19T00:51:57;100151.22;;;21.70;47.69
51081;BME280;37130;55.670;37.596;2022-08-19T00:54:27;100153.09;;;21.70;47.63
51081;BME280;37130;55.670;37.596;2022-08-19T00:56:58;100139.53;;;21.60;47.25
51081;BME280;37130;55.670;37.596;2022-08-19T00:59:27;100093.72;;;21.28;47.47
51081;BME280;37130;55.670;37.596;2022-08-19T01:02:16;100155.97;;;21.57;47.51
51081;BME280;37130;55.670;37.596;2022-08-19T01:04:44;100148.25;;;21.52;47.74
51081;BME280;37130;55.670;37.596;2022-08-19T01:07:12;100067.25;;;21.00;47.32
51081;BME280;37130;55.670;37.596;2022-08-19T01:09:46;100149.28;;;21.40;47.57
51081;BME280;37130;55.670;37.596;2022-08-19T01:12:14;100168.34;;;21.48;47.67
51081;BME280;37130;55.670;37.596;2022-08-19T01:14:41;100110.94;;;21.04;47.68
51081;BME280;37130;55.670;37.596;2022-08-19T01:17:10;100181.63;;;21.40;47.78
51081;BME280;37130;55.670;37.596;2022-08-19T01:19:40;100061.25;;;20.65;48.11
51081;BME280;37130;55.670;37.596;2022-08-19T01:24:57;100157.06;;;21.11;47.96
51081;BME280;37130;55.670;37.596;2022-08-19T01:27:25;100171.75;;;21.18;48.14
51081;BME280;37130;55.670;37.596;2022-08-19T01:30:01;100166.66;;;20.92;48.09
51081;BME280;37130;55.670;37.596;2022-08-19T01:32:29;100175.59;;;21.04;48.21
51081;BME280;37130;55.670;37.596;2022-08-19T01:35:01;100163.84;;;20.94;48.37
51081;BME280;37130;55.670;37.596;2022-08-19T01:37:29;100164.19;;;21.00;48.55
51081;BME280;37130;55.670;37.596;2022-08-19T01:39:58;100151.84;;;20.98;48.36
51081;BME280;37130;55.670;37.596;2022-08-19T01:42:25;100073.34;;;20.48;48.52
51081;BME280;37130;55.670;37.596;2022-08-19T01:44:56;100152.84;;;20.97;48.35
51081;BME280;37130;55.670;37.596;2022-08-19T01:47:24;100160.75;;;20.98;48.51
51081;BME280;37130;55.670;37.596;2022-08-19T01:49:52;100161.91;;;20.96;48.74
51081;BME280;37130;55.670;37.596;2022-08-19T01:52:19;100148.91;;;20.90;48.65
51081;BME280;37130;55.670;37.596;2022-08-19T01:54:47;100076.81;;;20.39;48.95
51081;BME280;37130;55.670;37.596;2022-08-19T01:57:15;100148.44;;;20.85;48.53
51081;BME280;37130;55.670;37.596;2022-08-19T01:59:43;100140.50;;;20.83;48.67
51081;BME280;37130;55.670;37.596;2022-08-19T02:02:11;100145.63;;;20.86;48.81
51081;BME280;37130;55.670;37.596;2022-08-19T02:04:39;100138.66;;;20.84;48.67
51081;BME280;37130;55.670;37.596;2022-08-19T02:07:07;100130.59;;;20.84;48.81
51081;BME280;37130;55.670;37.596;2022-08-19T02:09:35;99960.88;;;19.76;48.80
51081;BME280;37130;55.670;37.596;2022-08-19T02:12:04;99986.38;;;19.92;49.59
51081;BME280;37130;55.670;37.596;2022-08-19T02:14:34;100156.78;;;20.82;49.54
51081;BME280;37130;55.670;37.596;2022-08-19T02:17:02;100172.69;;;20.85;49.39
51081;BME280;37130;55.670;37.596;2022-08-19T02:19:31;100169.63;;;20.67;49.56
51081;BME280;37130;55.670;37.596;2022-08-19T02:22:00;100110.56;;;20.20;49.54
51081;BME280;37130;55.670;37.596;2022-08-19T02:24:30;100185.53;;;20.58;49.73
51081;BME280;37130;55.670;37.596;2022-08-19T02:26:58;100173.75;;;20.48;49.84
51081;BME280;37130;55.670;37.596;2022-08-19T02:29:26;100189.22;;;20.57;49.81
51081;BME280;37130;55.670;37.596;2022-08-19T02:31:53;100099.28;;;20.04;49.69
51081;BME280;37130;55.670;37.596;2022-08-19T02:34:21;100173.06;;;20.57;49.75
51081;BME280;37130;55.670;37.596;2022-08-19T02:36:48;100020.06;;;19.63;49.90
51081;BME280;37130;55.670;37.596;2022-08-19T02:39:18;100108.97;;;20.18;49.62
51081;BME280;37130;55.670;37.596;2022-08-19T02:41:46;100182.50;;;20.63;49.70
51081;BME280;37130;55.670;37.596;2022-08-19T02:44:13;100190.47;;;20.65;49.76
51081;BME280;37130;55.670;37.596;2022-08-19T02:46:56;100177.34;;;20.60;49.76
51081;BME280;37130;55.670;37.596;2022-08-19T02:49:24;100125.09;;;20.29;49.63
51081;BME280;37130;55.670;37.596;2022-08-19T02:51:52;100175.63;;;20.70;49.56
51081;BME280;37130;55.670;37.596;2022-08-19T02:54:19;100174.91;;;20.68;49.44
51081;BME280;37130;55.670;37.596;2022-08-19T02:56:48;100161.47;;;20.57;49.52
51081;BME280;37130;55.670;37.596;2022-08-19T02:59:15;100165.13;;;20.56;49.49
51081;BME280;37130;55.670;37.596;2022-08-19T03:01:46;100070.72;;;19.91;49.55
51081;BME280;37130;55.670;37.596;2022-08-19T03:04:14;100197.91;;;20.72;49.72
51081;BME280;37130;55.670;37.596;2022-08-19T03:06:45;100194.09;;;20.75;49.63
51081;BME280;37130;55.670;37.596;2022-08-19T03:09:13;100185.78;;;20.78;49.57
51081;BME280;37130;55.670;37.596;2022-08-19T03:11:42;100064.34;;;20.04;49.37
51081;BME280;37130;55.670;37.596;2022-08-19T03:14:10;100185.16;;;20.74;49.44
51081;BME280;37130;55.670;37.596;2022-08-19T03:16:43;100190.94;;;20.81;49.40
51081;BME280;37130;55.670;37.596;2022-08-19T03:19:12;100196.78;;;20.86;49.37
51081;BME280;37130;55.670;37.596;2022-08-19T03:21:42;100205.69;;;20.98;49.35
51081;BME280;37130;55.670;37.596;2022-08-19T03:24:13;100199.81;;;21.15;49.11
51081;BME280;37130;55.670;37.596;2022-08-19T03:26:44;100208.06;;;21.35;48.76
51081;BME280;37130;55.670;37.596;2022-08-19T03:29:12;100209.78;;;21.47;48.64
51081;BME280;37130;55.670;37.596;2022-08-19T03:31:42;100134.78;;;21.09;48.29
51081;BME280;37130;55.670;37.596;2022-08-19T03:34:24;100204.53;;;21.66;48.05
51081;BME280;37130;55.670;37.596;2022-08-19T03:36:57;100210.19;;;21.63;48.15
51081;BME280;37130;55.670;37.596;2022-08-19T03:39:26;100072.56;;;20.79;48.30
51081;BME280;37130;55.670;37.596;2022-08-19T03:41:54;100185.16;;;21.40;48.48
51081;BME280;37130;55.670;37.596;2022-08-19T03:44:49;100113.66;;;20.93;48.38
51081;BME280;37130;55.670;37.596;2022-08-19T03:47:17;100182.84;;;21.36;48.67
51081;BME280;37130;55.670;37.596;2022-08-19T03:49:45;100097.44;;;20.83;48.66
51081;BME280;37130;55.670;37.596;2022-08-19T03:52:13;100191.97;;;21.56;48.72
51081;BME280;37130;55.670;37.596;2022-08-19T03:54:41;100025.06;;;20.57;48.53
51081;BME280;37130;55.670;37.596;2022-08-19T03:57:09;100181.66;;;21.61;48.64
51081;BME280;37130;55.670;37.596;2022-08-19T03:59:37;100175.16;;;21.63;48.57
51081;BME280;37130;55.670;37.596;2022-08-19T04:02:10;100144.13;;;21.37;48.31
51081;BME280;37130;55.670;37.596;2022-08-19T04:04:41;100204.97;;;21.83;48.51
51081;BME280;37130;55.670;37.596;2022-08-19T04:07:13;100205.66;;;21.85;48.34
51081;BME280;37130;55.670;37.596;2022-08-19T04:09:43;100185.03;;;21.74;48.48
51081;BME280;37130;55.670;37.596;2022-08-19T04:12:10;100217.00;;;22.00;48.02
51081;BME280;37130;55.670;37.596;2022-08-19T04:14:38;100080.13;;;21.50;47.86
51081;BME280;37130;55.670;37.596;2022-08-19T04:17:07;100206.44;;;22.60;47.20
51081;BME280;37130;55.670;37.596;2022-08-19T04:19:35;100233.53;;;23.10;46.55
51081;BME280;37130;55.670;37.596;2022-08-19T04:22:04;100220.22;;;23.37;46.27
51081;BME280;37130;55.670;37.596;2022-08-19T04:24:35;100156.72;;;23.03;46.11
51081;BME280;37130;55.670;37.596;2022-08-19T04:27:03;100191.56;;;23.15;45.85
51081;BME280;37130;55.670;37.596;2022-08-19T04:29:31;100222.94;;;23.37;45.77
51081;BME280;37130;55.670;37.596;2022-08-19T04:31:59;100221.09;;;23.67;45.59
51081;BME280;37130;55.670;37.596;2022-08-19T04:34:37;100207.75;;;23.95;44.73
51081;BME280;37130;55.670;37.596;2022-08-19T04:37:26;100135.00;;;23.72;44.46
51081;BME280;37130;55.670;37.596;2022-08-19T04:40:01;100217.09;;;24.67;43.92
51081;BME280;37130;55.670;37.596;2022-08-19T04:42:47;100146.44;;;25.16;42.33
51081;BME280;37130;55.670;37.596;2022-08-19T04:45:15;100221.16;;;26.78;40.92
51081;BME280;37130;55.670;37.596;2022-08-19T04:47:43;100207.72;;;27.86;39.24
51081;BME280;37130;55.670;37.596;2022-08-19T04:50:17;100244.69;;;28.85;38.23
51081;BME280;37130;55.670;37.596;2022-08-19T04:52:45;100234.06;;;29.69;37.33
51081;BME280;37130;55.670;37.596;2022-08-19T04:55:13;100243.53;;;30.57;35.93
51081;BME280;37130;55.670;37.596;2022-08-19T04:57:43;100232.34;;;30.14;35.76
51081;BME280;37130;55.670;37.596;2022-08-19T05:00:11;100221.13;;;29.32;35.99
51081;BME280;37130;55.670;37.596;2022-08-19T05:02:39;100243.75;;;28.61;37.03
51081;BME280;37130;55.670;37.596;2022-08-19T05:05:07;100220.25;;;28.36;37.16
51081;BME280;37130;55.670;37.596;2022-08-19T05:07:35;100114.28;;;27.36;37.40
51081;BME280;37130;55.670;37.596;2022-08-19T05:10:04;100238.16;;;27.97;37.77
51081;BME280;37130;55.670;37.596;2022-08-19T05:12:33;100170.91;;;27.73;37.70
51081;BME280;37130;55.670;37.596;2022-08-19T05:15:03;100243.59;;;28.30;37.33
51081;BME280;37130;55.670;37.596;2022-08-19T05:17:31;100195.78;;;28.19;37.12
51081;BME280;37130;55.670;37.596;2022-08-19T05:20:07;100241.03;;;28.53;36.81
51081;BME280;37130;55.670;37.596;2022-08-19T05:22:53;100240.84;;;28.38;37.36
51081;BME280;37130;55.670;37.596;2022-08-19T05:25:21;100241.06;;;28.12;37.78
51081;BME280;37130;55.670;37.596;2022-08-19T05:27:49;100242.19;;;27.69;37.60
51081;BME280;37130;55.670;37.596;2022-08-19T05:30:17;100158.00;;;26.92;37.90
51081;BME280;37130;55.670;37.596;2022-08-19T05:32:59;100223.94;;;26.94;38.52
51081;BME280;37130;55.670;37.596;2022-08-19T05:35:27;100161.06;;;26.20;38.83
51081;BME280;37130;55.670;37.596;2022-08-19T05:38:01;100158.66;;;25.73;39.63
51081;BME280;37130;55.670;37.596;2022-08-19T05:40:28;100198.41;;;26.00;39.94
51081;BME280;37130;55.670;37.596;2022-08-19T05:42:56;100211.94;;;26.18;39.70
51081;BME280;37130;55.670;37.596;2022-08-19T05:45:23;100232.50;;;26.21;39.59
51081;BME280;37130;55.670;37.596;2022-08-19T05:47:51;100229.19;;;26.35;39.68
51081;BME280;37130;55.670;37.596;2022-08-19T05:50:19;100201.41;;;26.41;39.78
51081;BME280;37130;55.670;37.596;2022-08-19T05:52:46;100237.91;;;26.39;39.36
51081;BME280;37130;55.670;37.596;2022-08-19T05:55:20;100215.50;;;26.19;40.07
51081;BME280;37130;55.670;37.596;2022-08-19T05:57:49;100246.25;;;26.45;39.65
51081;BME280;37130;55.670;37.596;2022-08-19T06:00:17;100233.97;;;26.59;39.90
51081;BME280;37130;55.670;37.596;2022-08-19T06:02:50;100232.09;;;26.94;39.58
51081;BME280;37130;55.670;37.596;2022-08-19T06:05:19;100235.84;;;27.36;38.62
51081;BME280;37130;55.670;37.596;2022-08-19T06:07:47;100189.25;;;27.39;38.52
51081;BME280;37130;55.670;37.596;2022-08-19T06:10:14;100242.06;;;27.95;38.12
51081;BME280;37130;55.670;37.596;2022-08-19T06:12:44;100232.38;;;28.09;37.89
51081;BME280;37130;55.670;37.596;2022-08-19T06:15:13;100140.47;;;27.70;37.41
51081;BME280;37130;55.670;37.596;2022-08-19T06:17:42;100253.31;;;28.25;37.46
51081;BME280;37130;55.670;37.596;2022-08-19T06:20:14;100244.59;;;27.80;37.94
51081;BME280;37130;55.670;37.596;2022-08-19T06:22:43;100096.44;;;26.75;38.44
51081;BME280;37130;55.670;37.596;2022-08-19T06:25:13;100185.91;;;28.02;37.83
51081;BME280;37130;55.670;37.596;2022-08-19T06:27:43;100250.91;;;28.54;37.53
51081;BME280;37130;55.670;37.596;2022-08-19T06:30:31;100255.53;;;28.13;37.72
51081;BME280;37130;55.670;37.596;2022-08-19T06:32:59;100238.25;;;27.47;37.98
51081;BME280;37130;55.670;37.596;2022-08-19T06:35:27;100228.81;;;26.82;38.91
51081;BME280;37130;55.670;37.596;2022-08-19T06:37:56;100168.13;;;26.13;39.61
51081;BME280;37130;55.670;37.596;2022-08-19T06:40:24;100190.06;;;25.94;39.95
51081;BME280;37130;55.670;37.596;2022-08-19T06:42:52;100232.66;;;26.01;40.00
51081;BME280;37130;55.670;37.596;2022-08-19T06:45:22;100171.44;;;25.45;40.49
51081;BME280;37130;55.670;37.596;2022-08-19T06:48:02;100230.69;;;25.68;40.51
51081;BME280;37130;55.670;37.596;2022-08-19T06:50:29;100233.69;;;25.65;41.21
51081;BME280;37130;55.670;37.596;2022-08-19T06:52:57;100251.91;;;25.54;41.30
51081;BME280;37130;55.670;37.596;2022-08-19T06:55:30;100221.34;;;25.34;41.52
51081;BME280;37130;55.670;37.596;2022-08-19T06:58:02;100232.41;;;25.41;41.86
51081;BME280;37130;55.670;37.596;2022-08-19T07:00:48;100225.84;;;25.26;41.67
51081;BME280;37130;55.670;37.596;2022-08-19T07:03:17;100220.69;;;25.23;41.69
51081;BME280;37130;55.670;37.596;2022-08-19T07:05:45;100191.66;;;25.33;41.64
51081;BME280;37130;55.670;37.596;2022-08-19T07:08:13;100222.44;;;25.77;40.78
51081;BME280;37130;55.670;37.596;2022-08-19T07:10:45;100145.25;;;25.36;40.42
51081;BME280;37130;55.670;37.596;2022-08-19T07:13:13;100102.25;;;25.41;40.38
51081;BME280;37130;55.670;37.596;2022-08-19T07:15:40;100191.78;;;26.21;40.14
51081;BME280;37130;55.670;37.596;2022-08-19T07:18:08;100213.72;;;26.88;39.17
51081;BME280;37130;55.670;37.596;2022-08-19T07:20:39;100224.19;;;27.84;38.60
51081;BME280;37130;55.670;37.596;2022-08-19T07:23:08;100236.59;;;29.16;37.28
51081;BME280;37130;55.670;37.596;2022-08-19T07:25:44;100221.22;;;30.53;35.77
51081;BME280;37130;55.670;37.596;2022-08-19T07:28:19;100224.94;;;31.27;34.30
51081;BME280;37130;55.670;37.596;2022-08-19T07:30:51;100248.97;;;30.95;34.29
51081;BME280;37130;55.670;37.596;2022-08-19T07:33:19;100223.19;;;30.45;34.09
51081;BME280;37130;55.670;37.596;2022-08-19T07:35:47;100214.69;;;30.40;33.46
51081;BME280;37130;55.670;37.596;2022-08-19T07:38:15;100266.34;;;30.49;33.65
51081;BME280;37130;55.670;37.596;2022-08-19T07:40:44;100227.44;;;30.47;33.99
51081;BME280;37130;55.670;37.596;2022-08-19T07:43:13;100273.41;;;30.82;33.34
51081;BME280;37130;55.670;37.596;2022-08-19T07:45:44;100141.91;;;29.63;33.34
51081;BME280;37130;55.670;37.596;2022-08-19T07:48:11;100254.56;;;30.34;33.48
51081;BME280;37130;55.670;37.596;2022-08-19T07:50:39;100252.13;;;30.54;33.00
51081;BME280;37130;55.670;37.596;2022-08-19T07:53:07;100257.78;;;31.41;31.87
51081;BME280;37130;55.670;37.596;2022-08-19T07:55:35;100272.75;;;31.97;31.25
51081;BME280;37130;55.670;37.596;2022-08-19T07:58:14;100259.97;;;31.89;30.85
51081;BME280;37130;55.670;37.596;2022-08-19T08:00:43;100270.00;;;31.97;30.48
51081;BME280;37130;55.670;37.596;2022-08-19T08:03:12;100242.38;;;31.77;30.50
51081;BME280;37130;55.670;37.596;2022-08-19T08:05:40;100270.63;;;31.99;30.88
51081;BME280;37130;55.670;37.596;2022-08-19T08:08:27;100274.09;;;32.07;31.00
51081;BME280;37130;55.670;37.596;2022-08-19T08:11:17;100261.91;;;32.38;29.94
51081;BME280;37130;55.670;37.596;2022-08-19T08:13:47;100243.69;;;32.52;30.08
51081;BME280;37130;55.670;37.596;2022-08-19T08:16:33;100271.19;;;32.93;29.45
51081;BME280;37130;55.670;37.596;2022-08-19T08:19:13;100204.69;;;32.28;29.91
51081;BME280;37130;55.670;37.596;2022-08-19T08:21:55;100253.13;;;31.78;31.00
51081;BME280;37130;55.670;37.596;2022-08-19T08:24:26;100278.56;;;31.06;31.31
51081;BME280;37130;55.670;37.596;2022-08-19T08:26:55;100213.59;;;29.65;32.72
51081;BME280;37130;55.670;37.596;2022-08-19T08:29:25;100274.19;;;29.29;33.50
51081;BME280;37130;55.670;37.596;2022-08-19T08:32:01;100192.84;;;28.29;34.27
51081;BME280;37130;55.670;37.596;2022-08-19T08:34:41;100268.59;;;28.67;34.58
51081;BME280;37130;55.670;37.596;2022-08-19T08:37:09;100270.00;;;28.46;34.93
51081;BME280;37130;55.670;37.596;2022-08-19T08:39:37;100171.59;;;27.51;35.27
51081;BME280;37130;55.670;37.596;2022-08-19T08:42:12;100239.81;;;27.58;35.82
51081;BME280;37130;55.670;37.596;2022-08-19T08:45:01;100260.59;;;27.67;35.69
51081;BME280;37130;55.670;37.596;2022-08-19T08:47:36;100205.94;;;27.36;35.90
51081;BME280;37130;55.670;37.596;2022-08-19T08:50:13;100265.50;;;27.80;35.71
51081;BME280;37130;55.670;37.596;2022-08-19T08:52:46;100257.91;;;27.83;36.16
51081;BME280;37130;55.670;37.596;2022-08-19T08:55:18;100252.75;;;27.72;35.48
51081;BME280;37130;55.670;37.596;2022-08-19T08:58:09;100265.16;;;27.74;35.08
51081;BME280;37130;55.670;37.596;2022-08-19T09:00:44;100261.59;;;27.66;34.99
51081;BME280;37130;55.670;37.596;2022-08-19T09:03:19;100269.84;;;27.40;35.29
51081;BME280;37130;55.670;37.596;2022-08-19T09:06:00;100263.22;;;27.34;35.38
51081;BME280;37130;55.670;37.596;2022-08-19T09:11:19;100252.06;;;27.70;35.08
51081;BME280;37130;55.670;37.596;2022-08-19T09:17:13;100264.44;;;27.56;35.39
51081;BME280;37130;55.670;37.596;2022-08-19T09:19:51;100268.56;;;27.60;35.75
51081;BME280;37130;55.670;37.596;2022-08-19T09:22:19;100277.06;;;27.73;35.04
51081;BME280;37130;55.670;37.596;2022-08-19T09:24:52;100268.69;;;27.59;35.62
51081;BME280;37130;55.670;37.596;2022-08-19T09:27:21;100232.97;;;27.45;35.79
51081;BME280;37130;55.670;37.596;2022-08-19T09:30:13;100280.59;;;27.49;35.77
51081;BME280;37130;55.670;37.596;2022-08-19T09:32:42;100098.06;;;26.17;36.32
51081;BME280;37130;55.670;37.596;2022-08-19T09:35:11;100250.09;;;27.29;36.33
51081;BME280;37130;55.670;37.596;2022-08-19T09:37:40;100262.25;;;27.60;36.02
51081;BME280;37130;55.670;37.596;2022-08-19T09:40:11;100280.88;;;27.89;35.93
51081;BME280;37130;55.670;37.596;2022-08-19T09:42:39;100145.28;;;27.09;35.66
51081;BME280;37130;55.670;37.596;2022-08-19T09:45:19;100278.25;;;27.71;35.85
51081;BME280;37130;55.670;37.596;2022-08-19T09:47:50;100161.38;;;26.78;35.88
51081;BME280;37130;55.670;37.596;2022-08-19T09:50:21;100272.41;;;27.33;36.21
51081;BME280;37130;55.670;37.596;2022-08-19T09:52:49;100281.44;;;27.42;35.93
51081;BME280;37130;55.670;37.596;2022-08-19T09:55:24;100256.94;;;27.34;35.53
51081;BME280;37130;55.670;37.596;2022-08-19T09:57:59;100271.06;;;27.53;34.72
51081;BME280;37130;55.670;37.596;2022-08-19T10:00:29;100250.31;;;27.36;34.39
51081;BME280;37130;55.670;37.596;2022-08-19T10:02:58;100208.59;;;27.19;33.98
51081;BME280;37130;55.670;37.596;2022-08-19T10:05:26;100274.84;;;27.61;33.72
51081;BME280;37130;55.670;37.596;2022-08-19T10:08:17;100258.84;;;27.07;33.29
51081;BME280;37130;55.670;37.596;2022-08-19T10:10:47;100099.84;;;26.00;32.79
51081;BME280;37130;55.670;37.596;2022-08-19T10:13:18;100226.03;;;26.66;32.48
51081;BME280;37130;55.670;37.596;2022-08-19T10:15:49;100287.03;;;27.06;31.88
51081;BME280;37130;55.670;37.596;2022-08-19T10:18:23;100279.19;;;27.03;32.14
51081;BME280;37130;55.670;37.596;2022-08-19T10:21:01;100289.59;;;27.07;31.44
51081;BME280;37130;55.670;37.596;2022-08-19T10:23:30;100204.91;;;26.52;31.32
51081;BME280;37130;55.670;37.596;2022-08-19T10:26:00;100204.72;;;26.53;31.09
51081;BME280;37130;55.670;37.596;2022-08-19T10:28:28;100108.88;;;26.09;30.48
51081;BME280;37130;55.670;37.596;2022-08-19T10:30:56;100207.94;;;26.83;30.67
51081;BME280;37130;55.670;37.596;2022-08-19T10:33:23;100252.09;;;27.19;30.76
51081;BME280;37130;55.670;37.596;2022-08-19T10:36:22;100299.97;;;27.38;29.91
51081;BME280;37130;55.670;37.596;2022-08-19T10:38:52;100242.94;;;26.86;29.79
51081;BME280;37130;55.670;37.596;2022-08-19T10:41:26;100270.16;;;27.28;29.70
51081;BME280;37130;55.670;37.596;2022-08-19T10:43:57;100216.34;;;27.06;29.31
51081;BME280;37130;55.670;37.596;2022-08-19T10:46:31;100298.81;;;27.57;28.80
51081;BME280;37130;55.670;37.596;2022-08-19T10:49:00;100235.50;;;27.30;28.65
51081;BME280;37130;55.670;37.596;2022-08-19T10:51:29;100288.16;;;27.80;28.48
51081;BME280;37130;55.670;37.596;2022-08-19T10:54:16;100324.19;;;27.74;28.10
51081;BME280;37130;55.670;37.596;2022-08-19T10:56:57;100279.41;;;27.44;28.15
51081;BME280;37130;55.670;37.596;2022-08-19T10:59:28;100285.97;;;27.25;28.21
51081;BME280;37130;55.670;37.596;2022-08-19T11:02:04;100292.22;;;27.17;28.17
51081;BME280;37130;55.670;37.596;2022-08-19T11:04:32;100307.19;;;27.21;28.52
51081;BME280;37130;55.670;37.596;2022-08-19T11:07:03;100292.59;;;27.22;28.29
51081;BME280;37130;55.670;37.596;2022-08-19T11:09:37;100303.56;;;27.13;28.27
51081;BME280;37130;55.670;37.596;2022-08-19T11:12:06;100304.69;;;27.02;28.57
51081;BME280;37130;55.670;37.596;2022-08-19T11:14:34;100230.63;;;26.48;28.38
51081;BME280;37130;55.670;37.596;2022-08-19T11:17:04;100291.25;;;27.00;28.61
51081;BME280;37130;55.670;37.596;2022-08-19T11:19:32;100265.16;;;26.81;28.69
51081;BME280;37130;55.670;37.596;2022-08-19T11:22:00;100195.06;;;26.59;28.31
51081;BME280;37130;55.670;37.596;2022-08-19T11:24:31;100262.69;;;27.22;28.50
51081;BME280;37130;55.670;37.596;2022-08-19T11:27:08;100205.66;;;26.70;28.29
51081;BME280;37130;55.670;37.596;2022-08-19T11:29:38;100224.16;;;26.66;28.67
51081;BME280;37130;55.670;37.596;2022-08-19T11:32:09;100284.31;;;27.06;28.83
51081;BME280;37130;55.670;37.596;2022-08-19T11:34:37;100192.22;;;26.42;28.84
51081;BME280;37130;55.670;37.596;2022-08-19T11:37:05;100286.19;;;27.05;28.78
51081;BME280;37130;55.670;37.596;2022-08-19T11:39:34;100295.03;;;27.07;28.58
51081;BME280;37130;55.670;37.596;2022-08-19T11:42:05;100209.69;;;26.58;28.48
51081;BME280;37130;55.670;37.596;2022-08-19T11:44:53;100295.22;;;27.14;28.67
51081;BME280;37130;55.670;37.596;2022-08-19T11:47:21;100258.03;;;26.80;28.43
51081;BME280;37130;55.670;37.596;2022-08-19T11:49:48;100213.69;;;26.28;28.83
51081;BME280;37130;55.670;37.596;2022-08-19T11:52:17;100286.59;;;26.58;29.48
51081;BME280;37130;55.670;37.596;2022-08-19T11:54:44;100294.28;;;26.63;29.40
51081;BME280;37130;55.670;37.596;2022-08-19T11:57:12;100304.06;;;26.56;29.78
51081;BME280;37130;55.670;37.596;2022-08-19T11:59:51;100299.88;;;26.43;30.10
51081;BME280;37130;55.670;37.596;2022-08-19T12:02:19;100189.50;;;25.72;30.11
51081;BME280;37130;55.670;37.596;2022-08-19T12:04:49;100274.47;;;26.27;30.60
51081;BME280;37130;55.670;37.596;2022-08-19T12:07:16;100197.47;;;25.74;30.66
51081;BME280;37130;55.670;37.596;2022-08-19T12:09:46;100262.84;;;26.16;31.24
51081;BME280;37130;55.670;37.596;2022-08-19T12:12:15;100152.16;;;25.30;31.80
51081;BME280;37130;55.670;37.596;2022-08-19T12:14:42;100273.50;;;26.10;31.70
51081;BME280;37130;55.670;37.596;2022-08-19T12:17:10;100142.00;;;25.32;31.90
51081;BME280;37130;55.670;37.596;2022-08-19T12:19:39;100219.50;;;25.71;31.83
51081;BME280;37130;55.670;37.596;2022-08-19T12:22:07;100184.09;;;25.54;32.58
51081;BME280;37130;55.670;37.596;2022-08-19T12:24:35;100212.00;;;25.47;32.76
51081;BME280;37130;55.670;37.596;2022-08-19T12:27:03;100261.09;;;25.89;32.59
51081;BME280;37130;55.670;37.596;2022-08-19T12:29:39;100253.94;;;25.88;33.20
51081;BME280;37130;55.670;37.596;2022-08-19T12:32:07;100235.41;;;25.84;33.21
51081;BME280;37130;55.670;37.596;2022-08-19T12:34:38;100266.91;;;26.12;33.47
51081;BME280;37130;55.670;37.596;2022-08-19T12:37:06;100228.41;;;25.81;33.37
51081;BME280;37130;55.670;37.596;2022-08-19T12:39:38;100285.66;;;26.23;33.55
51081;BME280;37130;55.670;37.596;2022-08-19T12:42:06;100257.97;;;26.20;33.76
51081;BME280;37130;55.670;37.596;2022-08-19T12:44:38;100218.44;;;25.99;33.79
51081;BME280;37130;55.670;37.596;2022-08-19T12:47:10;100264.69;;;26.34;34.06
51081;BME280;37130;55.670;37.596;2022-08-19T12:49:39;100254.03;;;26.22;34.37
51081;BME280;37130;55.670;37.596;2022-08-19T12:52:25;100237.31;;;26.09;34.21
51081;BME280;37130;55.670;37.596;2022-08-19T12:54:56;100271.47;;;26.38;33.80
51081;BME280;37130;55.670;37.596;2022-08-19T12:57:26;100256.34;;;26.35;33.81
51081;BME280;37130;55.670;37.596;2022-08-19T13:00:19;100276.97;;;26.20;34.34
51081;BME280;37130;55.670;37.596;2022-08-19T13:02:50;100289.78;;;26.10;34.05
51081;BME280;37130;55.670;37.596;2022-08-19T13:05:21;100199.66;;;25.52;34.60
51081;BME280;37130;55.670;37.596;2022-08-19T13:07:50;100284.09;;;26.03;34.78
51081;BME280;37130;55.670;37.596;2022-08-19T13:10:20;100199.47;;;25.36;34.53
51081;BME280;37130;55.670;37.596;2022-08-19T13:12:50;100228.50;;;25.71;34.70